RJBM(METAR)
06/25 08:00
METAR RJBM 242300Z 07002KT 9999 FEW030 20/17 Q1017 RMK 2CU030 A3005=
戻る
トップページへ戻る
IMOC Co,.Ltd.